sensor_id;sensor_type;location;lat;lon;timestamp;temperature;humidity
78696;SHT31;68030;51.980;5.646;2024-03-02T00:01:15;11.9;52.7
78696;SHT31;68030;51.980;5.646;2024-03-02T00:03:44;11.9;52.8
78696;SHT31;68030;51.980;5.646;2024-03-02T00:06:13;11.9;52.7
78696;SHT31;68030;51.980;5.646;2024-03-02T00:08:41;12.0;52.7
78696;SHT31;68030;51.980;5.646;2024-03-02T00:11:11;12.0;52.5
78696;SHT31;68030;51.980;5.646;2024-03-02T00:13:41;12.0;52.7
78696;SHT31;68030;51.980;5.646;2024-03-02T00:16:10;12.0;52.8
78696;SHT31;68030;51.980;5.646;2024-03-02T00:18:39;12.0;52.9
78696;SHT31;68030;51.980;5.646;2024-03-02T00:21:09;12.0;52.7
78696;SHT31;68030;51.980;5.646;2024-03-02T00:23:39;12.0;52.7
78696;SHT31;68030;51.980;5.646;2024-03-02T00:26:13;12.0;52.7
78696;SHT31;68030;51.980;5.646;2024-03-02T00:28:43;12.0;52.8
78696;SHT31;68030;51.980;5.646;2024-03-02T00:31:13;12.0;52.9
78696;SHT31;68030;51.980;5.646;2024-03-02T00:33:44;12.1;53.4
78696;SHT31;68030;51.980;5.646;2024-03-02T00:36:14;12.1;53.7
78696;SHT31;68030;51.980;5.646;2024-03-02T00:38:47;12.1;53.8
78696;SHT31;68030;51.980;5.646;2024-03-02T00:41:23;12.1;54.2
78696;SHT31;68030;51.980;5.646;2024-03-02T00:43:58;12.1;53.8
78696;SHT31;68030;51.980;5.646;2024-03-02T00:46:29;12.1;54.0
78696;SHT31;68030;51.980;5.646;2024-03-02T00:49:00;12.1;53.9
78696;SHT31;68030;51.980;5.646;2024-03-02T00:51:30;12.1;53.8
78696;SHT31;68030;51.980;5.646;2024-03-02T00:54:01;12.1;53.8
78696;SHT31;68030;51.980;5.646;2024-03-02T00:56:31;12.1;53.5
78696;SHT31;68030;51.980;5.646;2024-03-02T00:59:01;12.2;53.4
78696;SHT31;68030;51.980;5.646;2024-03-02T01:01:30;12.2;54.2
78696;SHT31;68030;51.980;5.646;2024-03-02T01:03:58;12.2;55.2
78696;SHT31;68030;51.980;5.646;2024-03-02T01:06:27;12.2;55.6
78696;SHT31;68030;51.980;5.646;2024-03-02T01:08:56;12.2;55.7
78696;SHT31;68030;51.980;5.646;2024-03-02T01:11:25;12.2;55.9
78696;SHT31;68030;51.980;5.646;2024-03-02T01:13:54;12.2;56.0
78696;SHT31;68030;51.980;5.646;2024-03-02T01:16:22;12.2;56.4
78696;SHT31;68030;51.980;5.646;2024-03-02T01:18:51;12.2;56.4
78696;SHT31;68030;51.980;5.646;2024-03-02T01:21:20;12.2;56.4
78696;SHT31;68030;51.980;5.646;2024-03-02T01:23:48;12.2;56.6
78696;SHT31;68030;51.980;5.646;2024-03-02T01:26:17;12.1;56.6
78696;SHT31;68030;51.980;5.646;2024-03-02T01:28:45;12.1;56.9
78696;SHT31;68030;51.980;5.646;2024-03-02T01:31:17;12.1;57.2
78696;SHT31;68030;51.980;5.646;2024-03-02T01:33:45;12.1;57.5
78696;SHT31;68030;51.980;5.646;2024-03-02T01:36:14;12.0;57.8
78696;SHT31;68030;51.980;5.646;2024-03-02T01:38:42;12.0;57.9
78696;SHT31;68030;51.980;5.646;2024-03-02T01:41:11;12.0;57.6
78696;SHT31;68030;51.980;5.646;2024-03-02T01:43:40;12.0;57.7
78696;SHT31;68030;51.980;5.646;2024-03-02T01:46:08;12.0;58.0
78696;SHT31;68030;51.980;5.646;2024-03-02T01:48:37;11.9;58.2
78696;SHT31;68030;51.980;5.646;2024-03-02T01:51:06;11.9;58.1
78696;SHT31;68030;51.980;5.646;2024-03-02T01:53:39;11.9;58.2
78696;SHT31;68030;51.980;5.646;2024-03-02T01:56:07;11.9;58.2
78696;SHT31;68030;51.980;5.646;2024-03-02T01:58:36;11.9;58.3
78696;SHT31;68030;51.980;5.646;2024-03-02T02:01:05;11.9;58.1
78696;SHT31;68030;51.980;5.646;2024-03-02T02:03:34;11.8;58.2
78696;SHT31;68030;51.980;5.646;2024-03-02T02:06:04;11.8;58.4
78696;SHT31;68030;51.980;5.646;2024-03-02T02:08:33;11.8;58.5
78696;SHT31;68030;51.980;5.646;2024-03-02T02:11:02;11.8;58.5
78696;SHT31;68030;51.980;5.646;2024-03-02T02:13:31;11.8;58.6
78696;SHT31;68030;51.980;5.646;2024-03-02T02:16:06;11.8;58.5
78696;SHT31;68030;51.980;5.646;2024-03-02T02:18:35;11.8;58.6
78696;SHT31;68030;51.980;5.646;2024-03-02T02:21:04;11.8;58.5
78696;SHT31;68030;51.980;5.646;2024-03-02T02:23:33;11.8;58.4
78696;SHT31;68030;51.980;5.646;2024-03-02T02:26:01;11.8;58.3
78696;SHT31;68030;51.980;5.646;2024-03-02T02:28:31;11.7;58.3
78696;SHT31;68030;51.980;5.646;2024-03-02T02:31:00;11.7;58.5
78696;SHT31;68030;51.980;5.646;2024-03-02T02:33:29;11.7;58.4
78696;SHT31;68030;51.980;5.646;2024-03-02T02:35:57;11.7;58.8
78696;SHT31;68030;51.980;5.646;2024-03-02T02:38:26;11.7;59.4
78696;SHT31;68030;51.980;5.646;2024-03-02T02:40:54;11.7;59.8
78696;SHT31;68030;51.980;5.646;2024-03-02T02:43:23;11.7;60.1
78696;SHT31;68030;51.980;5.646;2024-03-02T02:45:51;11.6;60.3
78696;SHT31;68030;51.980;5.646;2024-03-02T02:48:20;11.6;60.6
78696;SHT31;68030;51.980;5.646;2024-03-02T02:50:48;11.6;60.7
78696;SHT31;68030;51.980;5.646;2024-03-02T02:53:17;11.6;61.0
78696;SHT31;68030;51.980;5.646;2024-03-02T02:55:46;11.6;61.3
78696;SHT31;68030;51.980;5.646;2024-03-02T02:58:14;11.6;61.3
78696;SHT31;68030;51.980;5.646;2024-03-02T03:00:43;11.5;61.4
78696;SHT31;68030;51.980;5.646;2024-03-02T03:03:12;11.5;61.4
78696;SHT31;68030;51.980;5.646;2024-03-02T03:05:40;11.5;61.9
78696;SHT31;68030;51.980;5.646;2024-03-02T03:08:09;11.5;61.7
78696;SHT31;68030;51.980;5.646;2024-03-02T03:10:37;11.4;61.4
78696;SHT31;68030;51.980;5.646;2024-03-02T03:13:08;11.4;61.7
78696;SHT31;68030;51.980;5.646;2024-03-02T03:15:37;11.4;61.1
78696;SHT31;68030;51.980;5.646;2024-03-02T03:18:06;11.3;61.0
78696;SHT31;68030;51.980;5.646;2024-03-02T03:20:37;11.3;61.0
78696;SHT31;68030;51.980;5.646;2024-03-02T03:23:05;11.3;61.1
78696;SHT31;68030;51.980;5.646;2024-03-02T03:25:35;11.2;61.6
78696;SHT31;68030;51.980;5.646;2024-03-02T03:28:04;11.2;61.5
78696;SHT31;68030;51.980;5.646;2024-03-02T03:30:34;11.1;61.3
78696;SHT31;68030;51.980;5.646;2024-03-02T03:33:03;11.1;61.3
78696;SHT31;68030;51.980;5.646;2024-03-02T03:35:32;11.1;61.7
78696;SHT31;68030;51.980;5.646;2024-03-02T03:38:01;11.1;61.7
78696;SHT31;68030;51.980;5.646;2024-03-02T03:40:30;11.0;61.6
78696;SHT31;68030;51.980;5.646;2024-03-02T03:42:58;11.0;61.5
78696;SHT31;68030;51.980;5.646;2024-03-02T03:45:27;11.0;61.5
78696;SHT31;68030;51.980;5.646;2024-03-02T03:47:58;11.0;61.6
78696;SHT31;68030;51.980;5.646;2024-03-02T03:50:27;11.0;61.8
78696;SHT31;68030;51.980;5.646;2024-03-02T03:52:55;11.0;61.5
78696;SHT31;68030;51.980;5.646;2024-03-02T03:55:24;11.0;61.3
78696;SHT31;68030;51.980;5.646;2024-03-02T03:57:53;10.9;61.5
78696;SHT31;68030;51.980;5.646;2024-03-02T04:00:22;10.9;61.4
78696;SHT31;68030;51.980;5.646;2024-03-02T04:02:51;10.9;61.5
78696;SHT31;68030;51.980;5.646;2024-03-02T04:05:19;10.9;61.6
78696;SHT31;68030;51.980;5.646;2024-03-02T04:07:48;10.9;61.5
78696;SHT31;68030;51.980;5.646;2024-03-02T04:10:16;10.9;61.8
78696;SHT31;68030;51.980;5.646;2024-03-02T04:12:49;10.9;61.4
78696;SHT31;68030;51.980;5.646;2024-03-02T04:15:19;10.9;61.6
78696;SHT31;68030;51.980;5.646;2024-03-02T04:17:49;10.9;61.3
78696;SHT31;68030;51.980;5.646;2024-03-02T04:20:18;10.9;61.2
78696;SHT31;68030;51.980;5.646;2024-03-02T04:22:46;10.9;60.9
78696;SHT31;68030;51.980;5.646;2024-03-02T04:25:15;10.8;61.0
78696;SHT31;68030;51.980;5.646;2024-03-02T04:27:45;10.8;61.0
78696;SHT31;68030;51.980;5.646;2024-03-02T04:30:14;10.8;60.7
78696;SHT31;68030;51.980;5.646;2024-03-02T04:32:42;10.8;60.8
78696;SHT31;68030;51.980;5.646;2024-03-02T04:35:13;10.8;60.7
78696;SHT31;68030;51.980;5.646;2024-03-02T04:37:41;10.8;60.3
78696;SHT31;68030;51.980;5.646;2024-03-02T04:40:13;10.8;60.3
78696;SHT31;68030;51.980;5.646;2024-03-02T04:42:42;10.8;60.3
78696;SHT31;68030;51.980;5.646;2024-03-02T04:45:11;10.8;60.3
78696;SHT31;68030;51.980;5.646;2024-03-02T04:47:39;10.8;60.3
78696;SHT31;68030;51.980;5.646;2024-03-02T04:50:10;10.8;60.0
78696;SHT31;68030;51.980;5.646;2024-03-02T04:52:41;10.8;60.0
78696;SHT31;68030;51.980;5.646;2024-03-02T04:55:10;10.8;60.1
78696;SHT31;68030;51.980;5.646;2024-03-02T04:57:43;10.8;59.8
78696;SHT31;68030;51.980;5.646;2024-03-02T05:00:13;10.8;59.9
78696;SHT31;68030;51.980;5.646;2024-03-02T05:02:42;10.8;60.0
78696;SHT31;68030;51.980;5.646;2024-03-02T05:05:10;10.8;60.2
78696;SHT31;68030;51.980;5.646;2024-03-02T05:07:39;10.8;60.3
78696;SHT31;68030;51.980;5.646;2024-03-02T05:10:09;10.8;60.2
78696;SHT31;68030;51.980;5.646;2024-03-02T05:12:38;10.8;60.3
78696;SHT31;68030;51.980;5.646;2024-03-02T05:15:23;10.8;60.3
78696;SHT31;68030;51.980;5.646;2024-03-02T05:17:52;10.8;60.2
78696;SHT31;68030;51.980;5.646;2024-03-02T05:20:21;10.8;60.2
78696;SHT31;68030;51.980;5.646;2024-03-02T05:22:51;10.8;60.3
78696;SHT31;68030;51.980;5.646;2024-03-02T05:25:20;10.7;60.4
78696;SHT31;68030;51.980;5.646;2024-03-02T05:27:49;10.7;60.5
78696;SHT31;68030;51.980;5.646;2024-03-02T05:30:18;10.7;60.8
78696;SHT31;68030;51.980;5.646;2024-03-02T05:32:46;10.7;61.0
78696;SHT31;68030;51.980;5.646;2024-03-02T05:35:15;10.6;61.0
78696;SHT31;68030;51.980;5.646;2024-03-02T05:37:43;10.6;61.2
78696;SHT31;68030;51.980;5.646;2024-03-02T05:40:12;10.6;61.2
78696;SHT31;68030;51.980;5.646;2024-03-02T05:42:42;10.6;61.3
78696;SHT31;68030;51.980;5.646;2024-03-02T05:45:12;10.6;61.4
78696;SHT31;68030;51.980;5.646;2024-03-02T05:47:43;10.6;61.4
78696;SHT31;68030;51.980;5.646;2024-03-02T05:50:11;10.6;61.3
78696;SHT31;68030;51.980;5.646;2024-03-02T05:52:39;10.7;61.0
78696;SHT31;68030;51.980;5.646;2024-03-02T05:55:08;10.7;60.7
78696;SHT31;68030;51.980;5.646;2024-03-02T05:57:37;10.7;60.7
78696;SHT31;68030;51.980;5.646;2024-03-02T06:00:20;10.7;60.5
78696;SHT31;68030;51.980;5.646;2024-03-02T06:02:49;10.8;60.2
78696;SHT31;68030;51.980;5.646;2024-03-02T06:05:17;10.8;59.8
78696;SHT31;68030;51.980;5.646;2024-03-02T06:07:46;10.8;59.1
78696;SHT31;68030;51.980;5.646;2024-03-02T06:10:15;10.7;59.0
78696;SHT31;68030;51.980;5.646;2024-03-02T06:12:44;10.7;59.1
78696;SHT31;68030;51.980;5.646;2024-03-02T06:15:12;10.7;58.9
78696;SHT31;68030;51.980;5.646;2024-03-02T06:17:40;10.7;58.9
78696;SHT31;68030;51.980;5.646;2024-03-02T06:20:11;10.6;59.0
78696;SHT31;68030;51.980;5.646;2024-03-02T06:22:41;10.6;59.0
78696;SHT31;68030;51.980;5.646;2024-03-02T06:25:10;10.6;59.4
78696;SHT31;68030;51.980;5.646;2024-03-02T06:27:39;10.5;59.7
78696;SHT31;68030;51.980;5.646;2024-03-02T06:30:09;10.5;59.8
78696;SHT31;68030;51.980;5.646;2024-03-02T06:32:38;10.5;59.9
78696;SHT31;68030;51.980;5.646;2024-03-02T06:35:10;10.4;59.4
78696;SHT31;68030;51.980;5.646;2024-03-02T06:37:41;10.4;58.8
78696;SHT31;68030;51.980;5.646;2024-03-02T06:40:10;10.4;59.0
78696;SHT31;68030;51.980;5.646;2024-03-02T06:42:39;10.4;58.9
78696;SHT31;68030;51.980;5.646;2024-03-02T06:45:10;10.4;59.3
78696;SHT31;68030;51.980;5.646;2024-03-02T06:47:38;10.4;59.3
78696;SHT31;68030;51.980;5.646;2024-03-02T06:50:10;10.4;59.4
78696;SHT31;68030;51.980;5.646;2024-03-02T06:52:38;10.4;59.2
78696;SHT31;68030;51.980;5.646;2024-03-02T06:55:07;10.4;58.7
78696;SHT31;68030;51.980;5.646;2024-03-02T06:57:36;10.4;58.5
78696;SHT31;68030;51.980;5.646;2024-03-02T07:00:05;10.4;58.7
78696;SHT31;68030;51.980;5.646;2024-03-02T07:02:36;10.3;58.9
78696;SHT31;68030;51.980;5.646;2024-03-02T07:05:07;10.3;59.0
78696;SHT31;68030;51.980;5.646;2024-03-02T07:07:38;10.3;59.0
78696;SHT31;68030;51.980;5.646;2024-03-02T07:10:07;10.3;59.0
78696;SHT31;68030;51.980;5.646;2024-03-02T07:12:36;10.3;59.1
78696;SHT31;68030;51.980;5.646;2024-03-02T07:15:06;10.3;59.2
78696;SHT31;68030;51.980;5.646;2024-03-02T07:17:58;10.3;59.0
78696;SHT31;68030;51.980;5.646;2024-03-02T07:20:28;10.3;59.3
78696;SHT31;68030;51.980;5.646;2024-03-02T07:22:57;10.4;59.6
78696;SHT31;68030;51.980;5.646;2024-03-02T07:25:25;10.4;59.4
78696;SHT31;68030;51.980;5.646;2024-03-02T07:27:56;10.4;59.6
78696;SHT31;68030;51.980;5.646;2024-03-02T07:30:24;10.4;59.7
78696;SHT31;68030;51.980;5.646;2024-03-02T07:32:53;10.5;59.5
78696;SHT31;68030;51.980;5.646;2024-03-02T07:35:21;10.5;59.5
78696;SHT31;68030;51.980;5.646;2024-03-02T07:37:53;10.5;59.4
78696;SHT31;68030;51.980;5.646;2024-03-02T07:40:23;10.6;59.1
78696;SHT31;68030;51.980;5.646;2024-03-02T07:42:52;10.6;58.9
78696;SHT31;68030;51.980;5.646;2024-03-02T07:45:21;10.7;59.1
78696;SHT31;68030;51.980;5.646;2024-03-02T07:47:51;10.8;59.1
78696;SHT31;68030;51.980;5.646;2024-03-02T07:50:20;10.8;58.8
78696;SHT31;68030;51.980;5.646;2024-03-02T07:52:48;10.9;58.9
78696;SHT31;68030;51.980;5.646;2024-03-02T07:55:17;11.0;58.8
78696;SHT31;68030;51.980;5.646;2024-03-02T07:57:45;11.1;58.1
78696;SHT31;68030;51.980;5.646;2024-03-02T08:00:14;11.2;58.1
78696;SHT31;68030;51.980;5.646;2024-03-02T08:02:44;11.3;57.8
78696;SHT31;68030;51.980;5.646;2024-03-02T08:05:13;11.4;57.2
78696;SHT31;68030;51.980;5.646;2024-03-02T08:07:44;11.4;56.7
78696;SHT31;68030;51.980;5.646;2024-03-02T08:10:13;11.5;56.4
78696;SHT31;68030;51.980;5.646;2024-03-02T08:12:44;11.5;56.3
78696;SHT31;68030;51.980;5.646;2024-03-02T08:15:15;11.6;56.6
78696;SHT31;68030;51.980;5.646;2024-03-02T08:17:44;11.6;56.3
78696;SHT31;68030;51.980;5.646;2024-03-02T08:20:16;11.6;56.2
78696;SHT31;68030;51.980;5.646;2024-03-02T08:22:45;11.7;56.0
78696;SHT31;68030;51.980;5.646;2024-03-02T08:25:14;11.7;55.9
78696;SHT31;68030;51.980;5.646;2024-03-02T08:27:44;11.7;55.7
78696;SHT31;68030;51.980;5.646;2024-03-02T08:30:13;11.8;55.3
78696;SHT31;68030;51.980;5.646;2024-03-02T08:32:42;11.8;55.1
78696;SHT31;68030;51.980;5.646;2024-03-02T08:35:11;11.8;54.3
78696;SHT31;68030;51.980;5.646;2024-03-02T08:37:41;11.8;54.4
78696;SHT31;68030;51.980;5.646;2024-03-02T08:40:12;11.8;54.4
78696;SHT31;68030;51.980;5.646;2024-03-02T08:42:41;11.8;54.2
78696;SHT31;68030;51.980;5.646;2024-03-02T08:45:10;11.8;54.1
78696;SHT31;68030;51.980;5.646;2024-03-02T08:47:39;11.8;54.7
78696;SHT31;68030;51.980;5.646;2024-03-02T08:50:09;11.8;54.3
78696;SHT31;68030;51.980;5.646;2024-03-02T08:52:37;11.8;54.0
78696;SHT31;68030;51.980;5.646;2024-03-02T08:55:08;11.8;54.4
78696;SHT31;68030;51.980;5.646;2024-03-02T08:57:38;11.8;54.3
78696;SHT31;68030;51.980;5.646;2024-03-02T09:00:09;11.8;53.8
78696;SHT31;68030;51.980;5.646;2024-03-02T09:02:38;11.8;54.0
78696;SHT31;68030;51.980;5.646;2024-03-02T09:05:07;11.8;53.4
78696;SHT31;68030;51.980;5.646;2024-03-02T09:07:37;11.9;53.4
78696;SHT31;68030;51.980;5.646;2024-03-02T09:10:08;11.9;53.3
78696;SHT31;68030;51.980;5.646;2024-03-02T09:12:37;11.9;53.1
78696;SHT31;68030;51.980;5.646;2024-03-02T09:15:08;11.9;52.9
78696;SHT31;68030;51.980;5.646;2024-03-02T09:17:36;12.0;53.1
78696;SHT31;68030;51.980;5.646;2024-03-02T09:20:06;12.0;53.0
78696;SHT31;68030;51.980;5.646;2024-03-02T09:22:34;12.1;52.3
78696;SHT31;68030;51.980;5.646;2024-03-02T09:25:03;12.1;52.8
78696;SHT31;68030;51.980;5.646;2024-03-02T09:27:35;12.2;52.4
78696;SHT31;68030;51.980;5.646;2024-03-02T09:30:07;12.3;52.0
78696;SHT31;68030;51.980;5.646;2024-03-02T09:32:37;12.3;51.5
78696;SHT31;68030;51.980;5.646;2024-03-02T09:35:06;12.4;51.7
78696;SHT31;68030;51.980;5.646;2024-03-02T09:37:35;12.4;51.8
78696;SHT31;68030;51.980;5.646;2024-03-02T09:40:04;12.5;52.0
78696;SHT31;68030;51.980;5.646;2024-03-02T09:42:34;12.6;50.8
78696;SHT31;68030;51.980;5.646;2024-03-02T09:45:04;12.6;50.9
78696;SHT31;68030;51.980;5.646;2024-03-02T09:47:33;12.7;50.7
78696;SHT31;68030;51.980;5.646;2024-03-02T09:50:01;12.8;50.5
78696;SHT31;68030;51.980;5.646;2024-03-02T09:52:30;12.8;50.8
78696;SHT31;68030;51.980;5.646;2024-03-02T09:54:59;12.9;50.9
78696;SHT31;68030;51.980;5.646;2024-03-02T09:57:28;12.9;50.1
78696;SHT31;68030;51.980;5.646;2024-03-02T09:59:56;13.0;50.3
78696;SHT31;68030;51.980;5.646;2024-03-02T10:02:25;13.1;49.7
78696;SHT31;68030;51.980;5.646;2024-03-02T10:04:53;13.1;49.7
78696;SHT31;68030;51.980;5.646;2024-03-02T10:07:22;13.2;50.2
78696;SHT31;68030;51.980;5.646;2024-03-02T10:09:50;13.2;50.2
78696;SHT31;68030;51.980;5.646;2024-03-02T10:12:19;13.3;49.9
78696;SHT31;68030;51.980;5.646;2024-03-02T10:14:48;13.3;49.7
78696;SHT31;68030;51.980;5.646;2024-03-02T10:17:19;13.4;49.8
78696;SHT31;68030;51.980;5.646;2024-03-02T10:19:47;13.5;49.1
78696;SHT31;68030;51.980;5.646;2024-03-02T10:22:16;13.5;48.3
78696;SHT31;68030;51.980;5.646;2024-03-02T10:24:45;13.6;47.8
78696;SHT31;68030;51.980;5.646;2024-03-02T10:27:17;13.7;47.7
78696;SHT31;68030;51.980;5.646;2024-03-02T10:29:48;13.7;47.7
78696;SHT31;68030;51.980;5.646;2024-03-02T10:32:17;13.8;47.1
78696;SHT31;68030;51.980;5.646;2024-03-02T10:34:47;13.8;46.5
78696;SHT31;68030;51.980;5.646;2024-03-02T10:37:16;13.9;46.6
78696;SHT31;68030;51.980;5.646;2024-03-02T10:39:45;13.9;46.0
78696;SHT31;68030;51.980;5.646;2024-03-02T10:42:15;14.0;45.9
78696;SHT31;68030;51.980;5.646;2024-03-02T10:44:45;14.1;45.5
78696;SHT31;68030;51.980;5.646;2024-03-02T10:47:17;14.1;45.7
78696;SHT31;68030;51.980;5.646;2024-03-02T10:49:47;14.2;44.8
78696;SHT31;68030;51.980;5.646;2024-03-02T10:52:17;14.2;45.2
78696;SHT31;68030;51.980;5.646;2024-03-02T10:54:46;14.2;45.0
78696;SHT31;68030;51.980;5.646;2024-03-02T10:57:17;14.2;44.7
78696;SHT31;68030;51.980;5.646;2024-03-02T10:59:53;14.3;44.8
78696;SHT31;68030;51.980;5.646;2024-03-02T11:02:26;14.3;44.6
78696;SHT31;68030;51.980;5.646;2024-03-02T11:05:00;14.4;44.7
78696;SHT31;68030;51.980;5.646;2024-03-02T11:07:35;14.4;44.2
78696;SHT31;68030;51.980;5.646;2024-03-02T11:10:08;14.4;44.0
78696;SHT31;68030;51.980;5.646;2024-03-02T11:12:40;14.5;44.4
78696;SHT31;68030;51.980;5.646;2024-03-02T11:15:19;14.5;44.4
78696;SHT31;68030;51.980;5.646;2024-03-02T11:17:49;14.5;44.4
78696;SHT31;68030;51.980;5.646;2024-03-02T11:20:20;14.5;43.9
78696;SHT31;68030;51.980;5.646;2024-03-02T11:22:50;14.6;44.8
78696;SHT31;68030;51.980;5.646;2024-03-02T11:25:26;14.6;44.9
78696;SHT31;68030;51.980;5.646;2024-03-02T11:28:02;14.6;44.9
78696;SHT31;68030;51.980;5.646;2024-03-02T11:31:59;14.7;45.2
78696;SHT31;68030;51.980;5.646;2024-03-02T11:34:31;14.8;43.5
78696;SHT31;68030;51.980;5.646;2024-03-02T11:37:01;14.8;43.3
78696;SHT31;68030;51.980;5.646;2024-03-02T11:39:31;14.9;42.8
78696;SHT31;68030;51.980;5.646;2024-03-02T11:42:00;14.9;42.9
78696;SHT31;68030;51.980;5.646;2024-03-02T11:44:29;14.9;43.2
78696;SHT31;68030;51.980;5.646;2024-03-02T11:47:02;15.0;43.3
78696;SHT31;68030;51.980;5.646;2024-03-02T11:49:40;15.0;43.0
78696;SHT31;68030;51.980;5.646;2024-03-02T11:52:12;15.1;41.9
78696;SHT31;68030;51.980;5.646;2024-03-02T11:54:42;15.1;41.9
78696;SHT31;68030;51.980;5.646;2024-03-02T11:57:17;15.1;41.2
78696;SHT31;68030;51.980;5.646;2024-03-02T11:59:46;15.2;40.9
78696;SHT31;68030;51.980;5.646;2024-03-02T12:02:18;15.2;41.1
78696;SHT31;68030;51.980;5.646;2024-03-02T12:04:49;15.3;41.2
78696;SHT31;68030;51.980;5.646;2024-03-02T12:07:23;15.3;41.0
78696;SHT31;68030;51.980;5.646;2024-03-02T12:10:01;15.3;40.9
78696;SHT31;68030;51.980;5.646;2024-03-02T12:12:29;15.4;40.7
78696;SHT31;68030;51.980;5.646;2024-03-02T12:14:58;15.4;40.8
78696;SHT31;68030;51.980;5.646;2024-03-02T12:17:27;15.5;40.7
78696;SHT31;68030;51.980;5.646;2024-03-02T12:19:58;15.5;40.8
78696;SHT31;68030;51.980;5.646;2024-03-02T12:22:31;15.6;41.2
78696;SHT31;68030;51.980;5.646;2024-03-02T12:24:59;15.6;41.4
78696;SHT31;68030;51.980;5.646;2024-03-02T12:27:29;15.7;41.3
78696;SHT31;68030;51.980;5.646;2024-03-02T12:29:58;15.8;40.7
78696;SHT31;68030;51.980;5.646;2024-03-02T12:32:27;15.9;41.0
78696;SHT31;68030;51.980;5.646;2024-03-02T12:34:58;15.9;41.6
78696;SHT31;68030;51.980;5.646;2024-03-02T12:37:27;16.0;41.0
78696;SHT31;68030;51.980;5.646;2024-03-02T12:39:56;16.1;41.1
78696;SHT31;68030;51.980;5.646;2024-03-02T12:42:25;16.1;42.8
78696;SHT31;68030;51.980;5.646;2024-03-02T12:44:54;16.2;43.8
78696;SHT31;68030;51.980;5.646;2024-03-02T12:47:23;16.3;41.2
78696;SHT31;68030;51.980;5.646;2024-03-02T12:49:52;16.4;41.6
78696;SHT31;68030;51.980;5.646;2024-03-02T12:52:21;16.5;41.6
78696;SHT31;68030;51.980;5.646;2024-03-02T12:54:49;16.5;41.5
78696;SHT31;68030;51.980;5.646;2024-03-02T12:57:19;16.6;41.1
78696;SHT31;68030;51.980;5.646;2024-03-02T12:59:48;16.7;40.7
78696;SHT31;68030;51.980;5.646;2024-03-02T13:02:19;16.7;40.0
78696;SHT31;68030;51.980;5.646;2024-03-02T13:04:54;16.7;39.7
78696;SHT31;68030;51.980;5.646;2024-03-02T13:07:24;16.8;40.4
78696;SHT31;68030;51.980;5.646;2024-03-02T13:09:55;16.8;40.2
78696;SHT31;68030;51.980;5.646;2024-03-02T13:12:25;16.8;39.6
78696;SHT31;68030;51.980;5.646;2024-03-02T13:14:54;16.8;39.9
78696;SHT31;68030;51.980;5.646;2024-03-02T13:17:22;16.8;39.6
78696;SHT31;68030;51.980;5.646;2024-03-02T13:19:55;16.8;39.7
78696;SHT31;68030;51.980;5.646;2024-03-02T13:22:24;16.9;40.8
78696;SHT31;68030;51.980;5.646;2024-03-02T13:24:54;16.9;40.4
78696;SHT31;68030;51.980;5.646;2024-03-02T13:27:23;17.0;40.2
78696;SHT31;68030;51.980;5.646;2024-03-02T13:29:52;17.1;39.8
78696;SHT31;68030;51.980;5.646;2024-03-02T13:32:20;17.1;39.2
78696;SHT31;68030;51.980;5.646;2024-03-02T13:34:50;17.2;38.6
78696;SHT31;68030;51.980;5.646;2024-03-02T13:37:19;17.2;38.5
78696;SHT31;68030;51.980;5.646;2024-03-02T13:39:49;17.2;38.9
78696;SHT31;68030;51.980;5.646;2024-03-02T13:42:18;17.3;39.0
78696;SHT31;68030;51.980;5.646;2024-03-02T13:44:46;17.3;37.9
78696;SHT31;68030;51.980;5.646;2024-03-02T13:47:17;17.3;38.2
78696;SHT31;68030;51.980;5.646;2024-03-02T13:49:47;17.3;37.6
78696;SHT31;68030;51.980;5.646;2024-03-02T13:52:16;17.3;37.3
78696;SHT31;68030;51.980;5.646;2024-03-02T13:54:47;17.3;36.9
78696;SHT31;68030;51.980;5.646;2024-03-02T13:57:18;17.3;37.6
78696;SHT31;68030;51.980;5.646;2024-03-02T13:59:49;17.2;37.3
78696;SHT31;68030;51.980;5.646;2024-03-02T14:02:19;17.2;37.2
78696;SHT31;68030;51.980;5.646;2024-03-02T14:04:48;17.2;37.1
78696;SHT31;68030;51.980;5.646;2024-03-02T14:07:17;17.2;37.3
78696;SHT31;68030;51.980;5.646;2024-03-02T14:09:46;17.1;37.4
78696;SHT31;68030;51.980;5.646;2024-03-02T14:12:14;17.1;37.5
78696;SHT31;68030;51.980;5.646;2024-03-02T14:14:42;17.2;38.1
78696;SHT31;68030;51.980;5.646;2024-03-02T14:17:11;17.2;38.2
78696;SHT31;68030;51.980;5.646;2024-03-02T14:19:42;17.2;38.0
78696;SHT31;68030;51.980;5.646;2024-03-02T14:22:10;17.2;37.9
78696;SHT31;68030;51.980;5.646;2024-03-02T14:24:40;17.2;38.1
78696;SHT31;68030;51.980;5.646;2024-03-02T14:27:09;17.2;38.2
78696;SHT31;68030;51.980;5.646;2024-03-02T14:29:43;17.2;37.8
78696;SHT31;68030;51.980;5.646;2024-03-02T14:32:11;17.2;37.8
78696;SHT31;68030;51.980;5.646;2024-03-02T14:34:40;17.2;37.8
78696;SHT31;68030;51.980;5.646;2024-03-02T14:37:09;17.2;38.0
78696;SHT31;68030;51.980;5.646;2024-03-02T14:39:37;17.1;37.5
78696;SHT31;68030;51.980;5.646;2024-03-02T14:42:06;17.1;38.3
78696;SHT31;68030;51.980;5.646;2024-03-02T14:44:35;17.1;38.5
78696;SHT31;68030;51.980;5.646;2024-03-02T14:47:04;17.1;38.7
78696;SHT31;68030;51.980;5.646;2024-03-02T14:49:33;17.1;39.2
78696;SHT31;68030;51.980;5.646;2024-03-02T14:52:07;17.0;39.3
78696;SHT31;68030;51.980;5.646;2024-03-02T14:54:36;17.0;39.2
78696;SHT31;68030;51.980;5.646;2024-03-02T14:57:05;17.0;39.5
78696;SHT31;68030;51.980;5.646;2024-03-02T14:59:35;16.9;39.9
78696;SHT31;68030;51.980;5.646;2024-03-02T15:02:06;16.9;39.6
78696;SHT31;68030;51.980;5.646;2024-03-02T15:04:38;16.9;39.4
78696;SHT31;68030;51.980;5.646;2024-03-02T15:07:06;16.9;39.1
78696;SHT31;68030;51.980;5.646;2024-03-02T15:09:35;16.9;39.1
78696;SHT31;68030;51.980;5.646;2024-03-02T15:12:04;16.8;39.9
78696;SHT31;68030;51.980;5.646;2024-03-02T15:14:32;16.8;40.2
78696;SHT31;68030;51.980;5.646;2024-03-02T15:17:01;16.8;40.1
78696;SHT31;68030;51.980;5.646;2024-03-02T15:19:30;16.8;40.2
78696;SHT31;68030;51.980;5.646;2024-03-02T15:21:58;16.8;39.9
78696;SHT31;68030;51.980;5.646;2024-03-02T15:24:27;16.8;40.2
78696;SHT31;68030;51.980;5.646;2024-03-02T15:26:57;16.8;40.5
78696;SHT31;68030;51.980;5.646;2024-03-02T15:29:26;16.8;40.5
78696;SHT31;68030;51.980;5.646;2024-03-02T15:31:55;16.8;41.0
78696;SHT31;68030;51.980;5.646;2024-03-02T15:34:27;16.7;41.5
78696;SHT31;68030;51.980;5.646;2024-03-02T15:36:56;16.7;41.8
78696;SHT31;68030;51.980;5.646;2024-03-02T15:39:25;16.7;41.5
78696;SHT31;68030;51.980;5.646;2024-03-02T15:41:53;16.7;41.5
78696;SHT31;68030;51.980;5.646;2024-03-02T15:44:22;16.7;41.7
78696;SHT31;68030;51.980;5.646;2024-03-02T15:46:51;16.6;42.0
78696;SHT31;68030;51.980;5.646;2024-03-02T15:49:20;16.6;42.5
78696;SHT31;68030;51.980;5.646;2024-03-02T15:51:48;16.6;42.8
78696;SHT31;68030;51.980;5.646;2024-03-02T15:54:16;16.5;42.9
78696;SHT31;68030;51.980;5.646;2024-03-02T15:56:45;16.5;43.2
78696;SHT31;68030;51.980;5.646;2024-03-02T15:59:14;16.5;43.3
78696;SHT31;68030;51.980;5.646;2024-03-02T16:01:42;16.5;43.7
78696;SHT31;68030;51.980;5.646;2024-03-02T16:04:11;16.4;43.8
78696;SHT31;68030;51.980;5.646;2024-03-02T16:06:40;16.4;44.1
78696;SHT31;68030;51.980;5.646;2024-03-02T16:09:08;16.4;44.1
78696;SHT31;68030;51.980;5.646;2024-03-02T16:11:37;16.4;44.4
78696;SHT31;68030;51.980;5.646;2024-03-02T16:14:06;16.4;44.8
78696;SHT31;68030;51.980;5.646;2024-03-02T16:16:34;16.4;44.9
78696;SHT31;68030;51.980;5.646;2024-03-02T16:19:03;16.4;44.9